Time;durP1;ratioP1;P1;durP2;ratioP2;P2;SDS_P1;SDS_P2;PMS_P1;PMS_P2;Temp;Humidity;BMP_temperature;BMP_pressure;BME280_temperature;BME280_humidity;BME280_pressure;Samples;Min_cycle;Max_cycle;Signal;HPM_P1;HPM_P2
2022/06/03 00:02:00;;;;;;;;;;;9.30;99.90;;;;;;4981867;29;19917;-83
2022/06/03 00:04:45;;;;;;;;;;;9.30;99.90;;;;;;4981655;29;19910;-82
2022/06/03 00:07:23;;;;;;;;;;;9.30;99.90;;;;;;4981991;29;19937;-82
2022/06/03 00:09:51;;;;;;;;;;;9.30;99.90;;;;;;4982093;29;19911;-83
2022/06/03 00:12:16;;;;;;;;;;;9.30;99.90;;;;;;4982095;29;19953;-83
2022/06/03 00:14:47;;;;;;;;;;;9.80;99.90;;;;;;4981973;29;19919;-82
2022/06/03 00:17:31;;;;;;;;;;;9.20;99.90;;;;;;4965234;29;19914;-83
2022/06/03 00:20:00;;;;;;;;;;;9.20;99.90;;;;;;4977967;28;19919;-83
2022/06/03 00:22:28;;;;;;;;;;;9.10;99.90;;;;;;4962451;29;19966;-82
2022/06/03 00:25:16;;;;;;;;;;;9.10;99.90;;;;;;4962553;29;19914;-83
2022/06/03 00:27:53;;;;;;;;;;;9.00;99.90;;;;;;4962530;29;19921;-83
2022/06/03 00:30:27;;;;;;;;;;;9.00;99.90;;;;;;4962613;28;19911;-83
2022/06/03 00:33:07;;;;;;;;;;;9.00;99.90;;;;;;4962351;29;19922;-83
2022/06/03 00:35:46;;;;;;;;;;;8.90;99.90;;;;;;4962375;29;19915;-83
2022/06/03 00:38:18;;;;;;;;;;;8.90;99.90;;;;;;4977411;28;19911;-83
2022/06/03 00:40:43;;;;;;;;;;;8.90;99.90;;;;;;4962327;29;19918;-83
2022/06/03 00:43:12;;;;;;;;;;;9.20;99.90;;;;;;4962277;29;19911;-84
2022/06/03 00:45:43;;;;;;;;;;;8.90;99.90;;;;;;4977810;29;19974;-83
2022/06/03 00:48:12;;;;;;;;;;;8.80;99.90;;;;;;4962053;29;19921;-83
2022/06/03 00:50:37;;;;;;;;;;;8.80;99.90;;;;;;4962198;29;19929;-83
2022/06/03 00:53:06;;;;;;;;;;;9.70;99.90;;;;;;4962053;28;19911;-82
2022/06/03 00:55:50;;;;;;;;;;;8.80;99.90;;;;;;4962118;29;19942;-83
2022/06/03 00:58:18;;;;;;;;;;;8.80;99.90;;;;;;4961953;29;19934;-83
2022/06/03 01:00:56;;;;;;;;;;;8.80;99.90;;;;;;4961048;29;20545;-83
2022/06/03 01:03:24;;;;;;;;;;;8.80;99.90;;;;;;4962054;29;19915;-83
2022/06/03 01:05:53;;;;;;;;;;;8.80;99.90;;;;;;4962270;29;19910;-83
2022/06/03 01:08:19;;;;;;;;;;;8.80;99.90;;;;;;4962007;28;19942;-83
2022/06/03 01:10:47;;;;;;;;;;;8.80;99.90;;;;;;4961903;29;19918;-83
2022/06/03 01:13:13;;;;;;;;;;;8.70;99.90;;;;;;4961973;29;19926;-82
2022/06/03 01:15:48;;;;;;;;;;;8.70;99.90;;;;;;4962050;29;19911;-82
2022/06/03 01:18:20;;;;;;;;;;;8.60;99.90;;;;;;4962192;28;19911;-84
2022/06/03 01:20:58;;;;;;;;;;;8.50;99.90;;;;;;4981157;29;19917;-82
2022/06/03 01:23:37;;;;;;;;;;;8.60;99.90;;;;;;4981010;29;19906;-82
2022/06/03 01:26:21;;;;;;;;;;;8.50;99.90;;;;;;4964608;29;19910;-82
2022/06/03 01:29:06;;;;;;;;;;;8.50;99.90;;;;;;4980585;29;19929;-82
2022/06/03 01:31:52;;;;;;;;;;;8.50;99.90;;;;;;4964520;29;19911;-83
2022/06/03 01:34:24;;;;;;;;;;;8.50;99.90;;;;;;4981013;29;19946;-83
2022/06/03 01:36:52;;;;;;;;;;;8.50;99.90;;;;;;4980874;29;19911;-83
2022/06/03 01:39:20;;;;;;;;;;;8.50;99.90;;;;;;4980935;29;19935;-83
2022/06/03 01:41:46;;;;;;;;;;;8.50;99.90;;;;;;4980965;29;19969;-83
2022/06/03 01:44:12;;;;;;;;;;;8.60;99.90;;;;;;4980912;29;19911;-82
2022/06/03 01:46:56;;;;;;;;;;;8.90;99.90;;;;;;4964519;29;19926;-82
2022/06/03 01:49:45;;;;;;;;;;;8.40;99.90;;;;;;4964391;28;19973;-83
2022/06/03 01:52:18;;;;;;;;;;;8.40;99.90;;;;;;4945148;29;20322;-83
2022/06/03 01:54:46;;;;;;;;;;;8.40;99.90;;;;;;4945293;29;19911;-82
2022/06/03 01:57:21;;;;;;;;;;;8.40;99.90;;;;;;4945263;29;19961;-83
2022/06/03 02:00:05;;;;;;;;;;;8.40;99.90;;;;;;4945346;29;19911;-83
2022/06/03 02:02:32;;;;;;;;;;;8.40;99.90;;;;;;4945230;29;19911;-83
2022/06/03 02:05:17;;;;;;;;;;;8.40;99.90;;;;;;4945203;29;19907;-82
2022/06/03 02:07:51;;;;;;;;;;;8.40;99.90;;;;;;4945255;29;19921;-83
2022/06/03 02:10:29;;;;;;;;;;;8.40;99.90;;;;;;4945185;29;19943;-83
2022/06/03 02:13:13;;;;;;;;;;;8.30;99.90;;;;;;4945014;29;19911;-82
2022/06/03 02:15:57;;;;;;;;;;;8.30;99.90;;;;;;4944884;29;19967;-83
2022/06/03 02:18:42;;;;;;;;;;;8.30;99.90;;;;;;4944698;29;19947;-83
2022/06/03 02:21:08;;;;;;;;;;;8.20;99.90;;;;;;4944880;29;19911;-83
2022/06/03 02:23:54;;;;;;;;;;;8.20;99.90;;;;;;4944776;29;19935;-83
2022/06/03 02:26:40;;;;;;;;;;;8.20;99.90;;;;;;4944841;29;19931;-85
2022/06/03 02:32:08;;;;;;;;;;;8.10;99.90;;;;;;4983782;29;19910;-83
2022/06/03 02:34:59;;;;;;;;;;;8.10;99.90;;;;;;4983897;29;19970;-83
2022/06/03 02:37:43;;;;;;;;;;;8.10;99.90;;;;;;4983756;29;19934;-83
2022/06/03 02:40:23;;;;;;;;;;;8.00;99.90;;;;;;4983285;29;19912;-83
2022/06/03 02:42:51;;;;;;;;;;;8.10;99.90;;;;;;4983747;29;19910;-84
2022/06/03 02:45:37;;;;;;;;;;;8.10;99.90;;;;;;4983642;29;19918;-83
2022/06/03 02:48:15;;;;;;;;;;;8.00;99.90;;;;;;4983503;29;19979;-83
2022/06/03 02:50:41;;;;;;;;;;;8.00;99.90;;;;;;4983494;29;19915;-84
2022/06/03 02:53:26;;;;;;;;;;;8.00;99.90;;;;;;4966971;29;19922;-84
2022/06/03 02:56:04;;;;;;;;;;;8.00;99.90;;;;;;4944170;29;19919;-84
2022/06/03 02:58:30;;;;;;;;;;;8.00;99.90;;;;;;4928450;29;19946;-83
2022/06/03 03:01:19;;;;;;;;;;;8.20;99.90;;;;;;4944072;29;19911;-83
2022/06/03 03:04:03;;;;;;;;;;;8.00;99.90;;;;;;4944043;29;19911;-83
2022/06/03 03:06:40;;;;;;;;;;;8.00;99.90;;;;;;4943918;29;19915;-84
2022/06/03 03:09:08;;;;;;;;;;;8.00;99.90;;;;;;4944220;29;19975;-83
2022/06/03 03:11:49;;;;;;;;;;;8.10;99.90;;;;;;4943875;29;19912;-82
2022/06/03 03:14:30;;;;;;;;;;;8.10;99.90;;;;;;4943748;29;19911;-84
2022/06/03 03:16:59;;;;;;;;;;;8.10;99.90;;;;;;4927809;29;19935;-83
2022/06/03 03:19:36;;;;;;;;;;;8.00;99.90;;;;;;4943175;29;19911;-82
2022/06/03 03:22:17;;;;;;;;;;;8.10;99.90;;;;;;4943624;29;19915;-82
2022/06/03 03:24:56;;;;;;;;;;;8.10;99.90;;;;;;4943684;29;19918;-83
2022/06/03 03:27:41;;;;;;;;;;;8.10;99.90;;;;;;4943526;29;19915;-82
2022/06/03 03:30:15;;;;;;;;;;;8.10;99.90;;;;;;4943460;29;19923;-82
2022/06/03 03:32:46;;;;;;;;;;;8.00;99.90;;;;;;4944000;29;19917;-83
2022/06/03 03:35:28;;;;;;;;;;;8.00;99.90;;;;;;4982160;29;19915;-83
2022/06/03 03:37:53;;;;;;;;;;;8.00;99.90;;;;;;4982265;29;19918;-82
2022/06/03 03:40:25;;;;;;;;;;;7.90;99.90;;;;;;4982437;29;19910;-82
2022/06/03 03:42:56;;;;;;;;;;;7.90;99.90;;;;;;4982116;29;19966;-82
2022/06/03 03:45:34;;;;;;;;;;;7.90;99.90;;;;;;4982274;29;19921;-82
2022/06/03 03:48:15;;;;;;;;;;;7.90;99.90;;;;;;4982087;29;19910;-82
2022/06/03 03:50:40;;;;;;;;;;;7.90;99.90;;;;;;4982178;29;20353;-83
2022/06/03 03:53:24;;;;;;;;;;;7.90;99.90;;;;;;4981800;29;19977;-82
2022/06/03 03:56:08;;;;;;;;;;;7.90;99.90;;;;;;4982252;29;19949;-83
2022/06/03 03:58:52;;;;;;;;;;;8.00;99.90;;;;;;4965698;29;19911;-82
2022/06/03 04:01:18;;;;;;;;;;;8.00;99.90;;;;;;4965690;29;19911;-82
2022/06/03 04:03:55;;;;;;;;;;;8.10;99.90;;;;;;4982064;29;19977;-82
2022/06/03 04:06:24;;;;;;;;;;;8.10;99.90;;;;;;4965596;29;19941;-82
2022/06/03 04:09:05;;;;;;;;;;;8.10;99.90;;;;;;4965513;29;19918;-83
2022/06/03 04:11:49;;;;;;;;;;;8.20;99.90;;;;;;4981884;29;19910;-83
2022/06/03 04:14:21;;;;;;;;;;;8.20;99.90;;;;;;4980450;28;19914;-83
2022/06/03 04:16:59;;;;;;;;;;;8.40;99.90;;;;;;4981989;29;19926;-83
2022/06/03 04:19:44;;;;;;;;;;;8.40;99.90;;;;;;4981513;29;19950;-82
2022/06/03 04:22:12;;;;;;;;;;;8.50;99.90;;;;;;4981362;29;19915;-83
2022/06/03 04:24:47;;;;;;;;;;;8.60;99.90;;;;;;4981703;29;19987;-83
2022/06/03 04:27:21;;;;;;;;;;;8.60;99.90;;;;;;4981661;29;19917;-83
2022/06/03 04:30:02;;;;;;;;;;;8.70;99.90;;;;;;4981687;29;19978;-84
2022/06/03 04:32:48;;;;;;;;;;;8.70;99.90;;;;;;4981526;29;19910;-83
2022/06/03 04:35:32;;;;;;;;;;;8.80;99.90;;;;;;4981511;29;19911;-83
2022/06/03 04:38:16;;;;;;;;;;;8.90;99.90;;;;;;4981372;29;19910;-83
2022/06/03 04:41:00;;;;;;;;;;;8.90;99.90;;;;;;4981409;29;19945;-83
2022/06/03 04:43:50;;;;;;;;;;;9.00;99.90;;;;;;4981395;29;19933;-83
2022/06/03 04:46:21;;;;;;;;;;;9.10;99.90;;;;;;4981341;29;19910;-82
2022/06/03 04:49:06;;;;;;;;;;;9.20;99.90;;;;;;4981343;29;19918;-84
2022/06/03 04:51:34;;;;;;;;;;;9.30;99.90;;;;;;4981257;29;19911;-82
2022/06/03 04:54:09;;;;;;;;;;;10.30;99.90;;;;;;4981271;29;19910;-83
2022/06/03 04:56:35;;;;;;;;;;;9.50;99.90;;;;;;4981163;29;19933;-83
2022/06/03 04:59:31;;;;;;;;;;;9.60;99.90;;;;;;4981256;29;19914;-84
2022/06/03 05:02:29;;;;;;;;;;;9.70;99.90;;;;;;4941714;28;19916;-84
2022/06/03 05:05:07;;;;;;;;;;;9.80;99.90;;;;;;4931507;29;19915;-82
2022/06/03 05:07:32;;;;;;;;;;;9.90;99.90;;;;;;4941917;29;19918;-83
2022/06/03 05:10:16;;;;;;;;;;;10.20;99.90;;;;;;4941990;29;19916;-82
2022/06/03 05:13:01;;;;;;;;;;;9.70;99.90;;;;;;4941840;29;19911;-83
2022/06/03 05:15:31;;;;;;;;;;;10.20;99.90;;;;;;4941815;29;19919;-83
2022/06/03 05:17:59;;;;;;;;;;;10.40;99.90;;;;;;4941525;29;19919;-82
2022/06/03 05:20:31;;;;;;;;;;;10.50;99.90;;;;;;4941666;29;19911;-84
2022/06/03 05:23:15;;;;;;;;;;;10.60;99.90;;;;;;4941699;29;19917;-84
2022/06/03 05:25:59;;;;;;;;;;;10.80;99.90;;;;;;4943828;29;19935;-84
2022/06/03 05:28:36;;;;;;;;;;;11.00;99.90;;;;;;4929771;29;19911;-82
2022/06/03 05:31:21;;;;;;;;;;;11.10;99.90;;;;;;4945517;29;19943;-85
2022/06/03 05:34:04;;;;;;;;;;;11.30;99.90;;;;;;4945695;29;19927;-84
2022/06/03 05:36:48;;;;;;;;;;;11.40;99.90;;;;;;4945470;29;19911;-83
2022/06/03 05:39:33;;;;;;;;;;;11.60;99.90;;;;;;4981253;29;19942;-83
2022/06/03 05:42:23;;;;;;;;;;;11.70;99.90;;;;;;4984671;29;19923;-83
2022/06/03 05:44:52;;;;;;;;;;;11.80;99.90;;;;;;4984638;29;19934;-83
2022/06/03 05:47:24;;;;;;;;;;;12.20;99.90;;;;;;4984660;29;19917;-84
2022/06/03 05:49:58;;;;;;;;;;;12.10;99.90;;;;;;4984574;29;19911;-82
2022/06/03 05:52:38;;;;;;;;;;;12.30;99.90;;;;;;4984385;29;19941;-83
2022/06/03 05:55:15;;;;;;;;;;;12.30;99.90;;;;;;4984386;29;19914;-83
2022/06/03 05:57:58;;;;;;;;;;;12.50;99.90;;;;;;4984231;29;19917;-83
2022/06/03 06:00:23;;;;;;;;;;;12.60;99.90;;;;;;4984395;29;19917;-83
2022/06/03 06:03:13;;;;;;;;;;;12.80;99.90;;;;;;4967975;29;19911;-83
2022/06/03 06:05:47;;;;;;;;;;;12.90;99.90;;;;;;4984258;29;19966;-83
2022/06/03 06:08:17;;;;;;;;;;;13.10;99.90;;;;;;4967670;29;19934;-84
2022/06/03 06:10:50;;;;;;;;;;;13.20;99.90;;;;;;4984145;29;19911;-83
2022/06/03 06:13:22;;;;;;;;;;;13.30;99.90;;;;;;4992281;28;19914;-84
2022/06/03 06:16:02;;;;;;;;;;;13.40;99.90;;;;;;4986429;28;19922;-85
2022/06/03 06:18:33;;;;;;;;;;;13.60;99.90;;;;;;4983841;29;19925;-86
2022/06/03 06:21:17;;;;;;;;;;;13.70;99.90;;;;;;4967625;29;19921;-86
2022/06/03 06:24:03;;;;;;;;;;;13.80;99.90;;;;;;4983862;29;19918;-86
2022/06/03 06:26:43;;;;;;;;;;;13.90;99.90;;;;;;4983637;29;19945;-83
2022/06/03 06:29:18;;;;;;;;;;;14.10;99.90;;;;;;4967084;29;19911;-84
2022/06/03 06:32:04;;;;;;;;;;;14.20;99.90;;;;;;4967186;29;19923;-86
2022/06/03 06:34:37;;;;;;;;;;;14.40;99.90;;;;;;4983738;29;19910;-85
2022/06/03 06:37:15;;;;;;;;;;;14.50;99.90;;;;;;4982549;28;19954;-86
2022/06/03 06:39:59;;;;;;;;;;;14.60;99.90;;;;;;4983677;29;19910;-86
2022/06/03 06:42:30;;;;;;;;;;;14.80;99.90;;;;;;4967143;29;19917;-87
2022/06/03 06:45:02;;;;;;;;;;;15.00;99.90;;;;;;4983501;29;19934;-86
2022/06/03 06:47:35;;;;;;;;;;;15.10;99.90;;;;;;4951061;29;19970;-85
2022/06/03 06:50:02;;;;;;;;;;;15.20;99.90;;;;;;4983518;29;19973;-86
2022/06/03 06:52:28;;;;;;;;;;;15.40;99.90;;;;;;4983338;29;19910;-86
2022/06/03 06:55:12;;;;;;;;;;;15.40;99.90;;;;;;4983459;29;19917;-87
2022/06/03 06:57:41;;;;;;;;;;;15.60;99.90;;;;;;4983265;29;19911;-86
2022/06/03 07:00:27;;;;;;;;;;;15.70;99.90;;;;;;4983319;28;19925;-83
2022/06/03 07:02:52;;;;;;;;;;;15.90;99.90;;;;;;4985626;28;19914;-84
2022/06/03 07:05:18;;;;;;;;;;;16.00;99.90;;;;;;5002700;28;19941;-84
2022/06/03 07:07:48;;;;;;;;;;;16.10;99.90;;;;;;5002024;28;19910;-84
2022/06/03 07:10:21;;;;;;;;;;;16.60;99.90;;;;;;5002337;28;19935;-82
2022/06/03 07:13:00;;;;;;;;;;;16.30;99.90;;;;;;5002479;28;19922;-84
2022/06/03 07:15:27;;;;;;;;;;;16.50;99.90;;;;;;5001623;28;19970;-84
2022/06/03 07:21:18;;;;;;;;;;;16.70;99.90;;;;;;4943637;29;19950;-83
2022/06/03 07:23:43;;;;;;;;;;;16.90;99.90;;;;;;4943490;29;19915;-83
2022/06/03 07:26:13;;;;;;;;;;;16.90;99.90;;;;;;4943279;29;19921;-83
2022/06/03 07:28:39;;;;;;;;;;;17.10;99.90;;;;;;4943448;29;19915;-83
2022/06/03 07:31:30;;;;;;;;;;;17.20;99.90;;;;;;4927763;29;19922;-83
2022/06/03 07:33:59;;;;;;;;;;;17.40;99.90;;;;;;4924901;29;19987;-84
2022/06/03 07:36:29;;;;;;;;;;;17.40;99.90;;;;;;4943316;29;19915;-83
2022/06/03 07:39:04;;;;;;;;;;;17.60;99.90;;;;;;4927490;29;19935;-83
2022/06/03 07:41:39;;;;;;;;;;;17.80;99.90;;;;;;4943334;29;19949;-84
2022/06/03 07:44:13;;;;;;;;;;;17.70;99.90;;;;;;4943281;29;19911;-84
2022/06/03 07:46:52;;;;;;;;;;;17.80;99.90;;;;;;4943219;29;19907;-85
2022/06/03 07:49:18;;;;;;;;;;;18.00;99.90;;;;;;4942985;29;19911;-84
2022/06/03 07:51:46;;;;;;;;;;;18.00;99.90;;;;;;4972120;28;19906;-84
2022/06/03 07:54:24;;;;;;;;;;;18.10;99.90;;;;;;5001639;28;19910;-84
2022/06/03 07:56:58;;;;;;;;;;;18.10;99.90;;;;;;5001607;28;19920;-84
2022/06/03 07:59:24;;;;;;;;;;;18.20;99.90;;;;;;5001513;28;19914;-84
2022/06/03 08:01:56;;;;;;;;;;;18.30;99.90;;;;;;5001681;28;19910;-83
2022/06/03 08:04:27;;;;;;;;;;;18.40;99.90;;;;;;5001376;28;19946;-84
2022/06/03 08:12:29;;;;;;;;;;;18.70;99.90;;;;;;4984595;28;19915;-84
2022/06/03 08:14:54;;;;;;;;;;;18.70;99.90;;;;;;5001309;28;19937;-84
2022/06/03 08:17:20;;;;;;;;;;;18.80;99.90;;;;;;5001266;28;19915;-84
2022/06/03 08:19:47;;;;;;;;;;;18.90;99.90;;;;;;5001084;28;19922;-84
2022/06/03 08:22:14;;;;;;;;;;;18.90;99.90;;;;;;4984628;28;19914;-84
2022/06/03 08:24:41;;;;;;;;;;;19.00;99.90;;;;;;5001116;28;19914;-84
2022/06/03 08:27:30;;;;;;;;;;;18.90;99.40;;;;;;5001103;28;19937;-84
2022/06/03 08:30:00;;;;;;;;;;;19.10;98.70;;;;;;4926640;29;19915;-83
2022/06/03 08:32:28;;;;;;;;;;;19.30;98.70;;;;;;4942329;29;19915;-85
2022/06/03 08:34:55;;;;;;;;;;;19.40;99.30;;;;;;4942303;29;19949;-83
2022/06/03 08:37:25;;;;;;;;;;;19.60;96.00;;;;;;4942350;29;19971;-84
2022/06/03 08:39:52;;;;;;;;;;;19.70;99.00;;;;;;4942332;29;19915;-84
2022/06/03 08:42:36;;;;;;;;;;;19.60;98.50;;;;;;4942261;29;19944;-83
2022/06/03 08:45:04;;;;;;;;;;;19.70;97.50;;;;;;4942127;29;19915;-84
2022/06/03 08:47:35;;;;;;;;;;;19.90;96.40;;;;;;4941889;29;19911;-84
2022/06/03 08:50:01;;;;;;;;;;;19.90;96.80;;;;;;4926204;29;19911;-84
2022/06/03 08:52:34;;;;;;;;;;;19.80;94.00;;;;;;4942104;29;19922;-84
2022/06/03 08:55:03;;;;;;;;;;;20.00;95.80;;;;;;4942112;29;19911;-83
2022/06/03 08:57:47;;;;;;;;;;;20.10;96.10;;;;;;4942020;29;19926;-84
2022/06/03 09:00:15;;;;;;;;;;;20.10;95.40;;;;;;4941464;29;19970;-84
2022/06/03 09:02:59;;;;;;;;;;;20.20;95.10;;;;;;4926191;29;19911;-84
2022/06/03 09:05:29;;;;;;;;;;;20.30;96.90;;;;;;4942059;29;19969;-84
2022/06/03 09:08:20;;;;;;;;;;;20.40;94.30;;;;;;4997935;28;19934;-84
2022/06/03 09:10:58;;;;;;;;;;;20.50;94.80;;;;;;4997472;28;19930;-84
2022/06/03 09:13:30;;;;;;;;;;;20.70;95.30;;;;;;5000255;28;19914;-85
2022/06/03 09:15:56;;;;;;;;;;;20.80;94.90;;;;;;5000361;28;19949;-85
2022/06/03 09:18:25;;;;;;;;;;;21.00;92.70;;;;;;5000011;28;19910;-84
2022/06/03 09:21:04;;;;;;;;;;;21.10;93.10;;;;;;5000241;28;19924;-85
2022/06/03 09:23:33;;;;;;;;;;;21.20;92.00;;;;;;4999999;28;19933;-84
2022/06/03 09:26:00;;;;;;;;;;;21.20;92.10;;;;;;5000040;28;19917;-84
2022/06/03 09:28:34;;;;;;;;;;;21.20;92.70;;;;;;5000132;28;19933;-84
2022/06/03 09:31:07;;;;;;;;;;;21.30;92.00;;;;;;4983661;28;19910;-84
2022/06/03 09:33:33;;;;;;;;;;;21.40;94.50;;;;;;4999813;28;19914;-84
2022/06/03 09:36:00;;;;;;;;;;;21.50;91.90;;;;;;4999934;28;19921;-83
2022/06/03 09:38:28;;;;;;;;;;;21.50;90.00;;;;;;4999962;28;19989;-83
2022/06/03 09:40:58;;;;;;;;;;;21.50;91.80;;;;;;4983309;28;19910;-83
2022/06/03 09:43:25;;;;;;;;;;;21.40;90.10;;;;;;4983462;28;19933;-84
2022/06/03 09:45:52;;;;;;;;;;;21.50;90.80;;;;;;5000169;28;19910;-84
2022/06/03 09:48:20;;;;;;;;;;;21.50;89.50;;;;;;5000103;28;19914;-84
2022/06/03 09:50:47;;;;;;;;;;;21.50;89.30;;;;;;5000109;28;19922;-84
2022/06/03 09:53:16;;;;;;;;;;;21.60;91.40;;;;;;5000046;28;19910;-84
2022/06/03 09:55:47;;;;;;;;;;;21.70;90.10;;;;;;5000033;28;19914;-84
2022/06/03 09:58:15;;;;;;;;;;;21.70;87.20;;;;;;4967370;28;19910;-84
2022/06/03 10:00:43;;;;;;;;;;;21.80;90.30;;;;;;4999796;28;19910;-84
2022/06/03 10:03:10;;;;;;;;;;;22.10;91.80;;;;;;4999919;28;19916;-85
2022/06/03 10:05:35;;;;;;;;;;;22.20;91.00;;;;;;4999921;28;19921;-84
2022/06/03 10:08:05;;;;;;;;;;;22.00;90.10;;;;;;4983253;28;19910;-84
2022/06/03 10:13:16;;;;;;;;;;;22.10;89.20;;;;;;5003451;28;19914;-84
2022/06/03 10:15:47;;;;;;;;;;;22.10;88.30;;;;;;5003460;28;19918;-84
2022/06/03 10:18:24;;;;;;;;;;;22.30;89.80;;;;;;5003290;28;19910;-84
2022/06/03 10:20:51;;;;;;;;;;;22.10;88.00;;;;;;4964856;29;19922;-84
2022/06/03 10:23:21;;;;;;;;;;;22.30;89.80;;;;;;4964786;29;19943;-84
2022/06/03 10:25:49;;;;;;;;;;;22.50;88.10;;;;;;4948466;29;19918;-84
2022/06/03 10:28:16;;;;;;;;;;;22.60;89.80;;;;;;4964598;29;19915;-84
2022/06/03 10:30:42;;;;;;;;;;;22.40;85.20;;;;;;4964613;29;19915;-84
2022/06/03 10:33:18;;;;;;;;;;;22.40;84.40;;;;;;4964611;29;19911;-84
2022/06/03 10:35:44;;;;;;;;;;;22.40;88.50;;;;;;4964508;29;19941;-84
2022/06/03 10:38:10;;;;;;;;;;;22.40;88.80;;;;;;4963915;29;19915;-84
2022/06/03 10:40:39;;;;;;;;;;;22.40;89.50;;;;;;4964479;29;19919;-85
2022/06/03 10:43:05;;;;;;;;;;;22.50;87.90;;;;;;4964471;29;19911;-84
2022/06/03 10:45:33;;;;;;;;;;;22.70;87.10;;;;;;4964419;29;19914;-84
2022/06/03 10:47:58;;;;;;;;;;;22.80;88.50;;;;;;4964224;29;19966;-84
2022/06/03 10:50:25;;;;;;;;;;;22.80;86.70;;;;;;4964222;29;19934;-84
2022/06/03 11:01:24;;;;;;;;;;;22.90;84.30;;;;;;4961572;29;19922;-83
2022/06/03 11:03:51;;;;;;;;;;;23.10;83.90;;;;;;4964148;29;19915;-85
2022/06/03 11:06:18;;;;;;;;;;;23.10;83.40;;;;;;4964102;29;19926;-85
2022/06/03 11:08:58;;;;;;;;;;;23.40;80.90;;;;;;4963905;29;19911;-85
2022/06/03 11:11:31;;;;;;;;;;;23.30;83.00;;;;;;4963758;29;19911;-88
2022/06/03 11:13:56;;;;;;;;;;;23.40;82.80;;;;;;4946491;29;19923;-87
2022/06/03 11:16:23;;;;;;;;;;;23.50;80.40;;;;;;4960769;29;19922;-88
2022/06/03 11:18:49;;;;;;;;;;;23.60;81.00;;;;;;4947569;29;19911;-86
2022/06/03 11:21:20;;;;;;;;;;;23.50;80.50;;;;;;4962986;29;19946;-86
2022/06/03 11:23:46;;;;;;;;;;;23.50;81.60;;;;;;4962418;29;19927;-86
2022/06/03 11:26:12;;;;;;;;;;;23.40;80.70;;;;;;4962975;29;19915;-85
2022/06/03 11:28:40;;;;;;;;;;;23.60;79.40;;;;;;4963451;29;19925;-87
2022/06/03 11:31:12;;;;;;;;;;;23.50;80.60;;;;;;4962876;29;19946;-87
2022/06/03 11:33:56;;;;;;;;;;;23.60;78.00;;;;;;4962850;29;19914;-86
2022/06/03 11:36:31;;;;;;;;;;;23.70;76.80;;;;;;4962693;29;19915;-89
2022/06/03 11:39:02;;;;;;;;;;;23.60;78.70;;;;;;4963299;29;19934;-87
2022/06/03 11:41:30;;;;;;;;;;;23.70;77.60;;;;;;4968978;28;19922;-86
2022/06/03 11:44:17;;;;;;;;;;;23.90;79.70;;;;;;4965893;29;19946;-86
2022/06/03 11:46:46;;;;;;;;;;;23.90;78.80;;;;;;4982366;28;19968;-86
2022/06/03 11:49:15;;;;;;;;;;;23.70;81.60;;;;;;4981644;29;19938;-87
2022/06/03 11:51:41;;;;;;;;;;;23.90;79.40;;;;;;4982260;28;19937;-86
2022/06/03 11:54:10;;;;;;;;;;;23.90;81.40;;;;;;4979189;28;19954;-87
2022/06/03 11:56:36;;;;;;;;;;;24.00;84.60;;;;;;4981573;28;19923;-88
2022/06/03 11:59:05;;;;;;;;;;;24.00;77.30;;;;;;4981683;28;19934;-89
2022/06/03 12:01:34;;;;;;;;;;;24.00;80.60;;;;;;4981602;29;19926;-87
2022/06/03 12:03:59;;;;;;;;;;;23.60;80.30;;;;;;4981653;29;19910;-86
2022/06/03 12:06:35;;;;;;;;;;;23.50;82.00;;;;;;4981441;29;19922;-85
2022/06/03 12:09:05;;;;;;;;;;;23.40;82.00;;;;;;4981959;28;19957;-87
2022/06/03 12:14:27;;;;;;;;;;;23.50;82.50;;;;;;4981809;28;19983;-86
2022/06/03 12:16:54;;;;;;;;;;;23.30;79.40;;;;;;4981267;29;19954;-87
2022/06/03 12:19:37;;;;;;;;;;;23.20;78.70;;;;;;4989070;28;19922;-87
2022/06/03 12:22:15;;;;;;;;;;;23.30;80.10;;;;;;5000987;28;19914;-87
2022/06/03 12:24:42;;;;;;;;;;;23.30;82.10;;;;;;5000960;28;19942;-87
2022/06/03 12:27:16;;;;;;;;;;;23.20;80.10;;;;;;5001019;28;19964;-87
2022/06/03 12:29:49;;;;;;;;;;;23.50;79.00;;;;;;4983731;28;20218;-88
2022/06/03 12:32:23;;;;;;;;;;;23.70;80.00;;;;;;4981646;28;19965;-88
2022/06/03 12:34:49;;;;;;;;;;;23.30;77.50;;;;;;4967474;28;19910;-87
2022/06/03 12:37:23;;;;;;;;;;;23.50;81.30;;;;;;5000633;28;19910;-89
2022/06/03 12:40:03;;;;;;;;;;;23.30;82.60;;;;;;4984348;28;19921;-88
2022/06/03 12:42:29;;;;;;;;;;;23.20;80.70;;;;;;5000734;28;19938;-88
2022/06/03 12:44:54;;;;;;;;;;;23.30;83.10;;;;;;4983982;28;19977;-88
2022/06/03 12:47:26;;;;;;;;;;;23.70;81.90;;;;;;4998403;28;19990;-88
2022/06/03 12:50:04;;;;;;;;;;;23.70;80.70;;;;;;4983985;28;19910;-86
2022/06/03 12:52:30;;;;;;;;;;;23.80;80.70;;;;;;4983998;28;19910;-87
2022/06/03 12:54:57;;;;;;;;;;;23.50;78.60;;;;;;4983970;28;19914;-87
2022/06/03 12:57:33;;;;;;;;;;;23.40;79.90;;;;;;4983855;28;19914;-87
2022/06/03 13:00:23;;;;;;;;;;;23.10;78.40;;;;;;4983996;28;19910;-86
2022/06/03 13:02:53;;;;;;;;;;;23.00;81.10;;;;;;4979129;28;19922;-88
2022/06/03 13:05:26;;;;;;;;;;;23.30;83.80;;;;;;4983966;28;19926;-87
2022/06/03 13:08:11;;;;;;;;;;;23.30;81.40;;;;;;5000375;28;19914;-88
2022/06/03 13:10:53;;;;;;;;;;;23.30;79.20;;;;;;5000424;28;19910;-87
2022/06/03 13:13:29;;;;;;;;;;;23.00;81.10;;;;;;4980495;28;19936;-86
2022/06/03 13:16:14;;;;;;;;;;;22.80;79.90;;;;;;4983369;28;19937;-87
2022/06/03 13:18:42;;;;;;;;;;;22.80;80.40;;;;;;4925050;29;20072;-87
2022/06/03 13:21:08;;;;;;;;;;;23.00;77.90;;;;;;4942447;29;19915;-86
2022/06/03 13:23:34;;;;;;;;;;;22.90;77.50;;;;;;4921201;29;19950;-87
2022/06/03 13:26:18;;;;;;;;;;;22.90;77.80;;;;;;4910177;29;19914;-88
2022/06/03 13:28:44;;;;;;;;;;;23.00;78.70;;;;;;4926560;29;19947;-86
2022/06/03 13:31:14;;;;;;;;;;;23.00;79.00;;;;;;4929811;29;19915;-88
2022/06/03 13:33:58;;;;;;;;;;;23.20;79.90;;;;;;4926890;29;19923;-87
2022/06/03 13:36:31;;;;;;;;;;;23.30;80.30;;;;;;4943058;29;19915;-88
2022/06/03 13:38:57;;;;;;;;;;;23.20;78.10;;;;;;4941745;29;19947;-88
2022/06/03 13:44:38;;;;;;;;;;;22.80;77.80;;;;;;4941801;29;19939;-88
2022/06/03 13:47:09;;;;;;;;;;;22.80;80.60;;;;;;4943603;29;19926;-87
2022/06/03 13:49:36;;;;;;;;;;;22.90;78.70;;;;;;4930778;29;19915;-87
2022/06/03 13:52:08;;;;;;;;;;;22.50;76.80;;;;;;4913300;29;19915;-88
2022/06/03 13:54:36;;;;;;;;;;;22.60;75.60;;;;;;4914681;29;19915;-88
2022/06/03 13:57:05;;;;;;;;;;;22.60;77.70;;;;;;4967619;29;19914;-89
2022/06/03 13:59:32;;;;;;;;;;;22.80;76.00;;;;;;4984150;29;19911;-88
2022/06/03 14:01:58;;;;;;;;;;;22.70;75.80;;;;;;4967708;29;19914;-82
2022/06/03 14:04:27;;;;;;;;;;;22.60;75.10;;;;;;4967651;29;19914;-86
2022/06/03 14:06:58;;;;;;;;;;;22.50;75.50;;;;;;4967773;29;19910;-86
2022/06/03 14:09:35;;;;;;;;;;;22.40;75.00;;;;;;4984032;29;19914;-86
2022/06/03 14:12:07;;;;;;;;;;;22.40;76.00;;;;;;4967230;29;19917;-86
2022/06/03 14:14:42;;;;;;;;;;;22.40;73.90;;;;;;4983972;29;19914;-86
2022/06/03 14:17:12;;;;;;;;;;;22.10;72.80;;;;;;4983317;29;19914;-87
2022/06/03 14:19:37;;;;;;;;;;;22.00;72.70;;;;;;4967192;29;19995;-87
2022/06/03 14:22:16;;;;;;;;;;;22.20;72.80;;;;;;4967282;29;19914;-86
2022/06/03 14:24:48;;;;;;;;;;;22.30;69.30;;;;;;4951475;29;19942;-86
2022/06/03 14:27:17;;;;;;;;;;;22.70;69.20;;;;;;4966965;29;19915;-87
2022/06/03 14:29:48;;;;;;;;;;;22.70;68.00;;;;;;4983161;29;19922;-87
2022/06/03 14:32:16;;;;;;;;;;;22.90;72.10;;;;;;4967205;29;19922;-88
2022/06/03 14:34:44;;;;;;;;;;;22.70;70.10;;;;;;4983599;29;19914;-86
2022/06/03 14:37:15;;;;;;;;;;;22.60;67.80;;;;;;4983422;29;19934;-86
2022/06/03 14:39:43;;;;;;;;;;;22.50;65.90;;;;;;4967031;29;19941;-86
2022/06/03 14:42:11;;;;;;;;;;;22.20;69.80;;;;;;4983408;29;19945;-86
2022/06/03 14:44:39;;;;;;;;;;;22.10;72.60;;;;;;4983372;29;19919;-87
2022/06/03 14:47:08;;;;;;;;;;;22.30;73.60;;;;;;4966796;29;19914;-87
2022/06/03 14:49:36;;;;;;;;;;;22.00;74.10;;;;;;4983232;29;19910;-86
2022/06/03 14:52:08;;;;;;;;;;;22.40;75.10;;;;;;4966767;29;19967;-87
2022/06/03 14:54:35;;;;;;;;;;;22.50;69.70;;;;;;4983186;29;19914;-86
2022/06/03 14:57:02;;;;;;;;;;;22.50;75.80;;;;;;4966176;28;19911;-86
2022/06/03 14:59:28;;;;;;;;;;;22.40;73.70;;;;;;4982600;29;19910;-88
2022/06/03 15:01:57;;;;;;;;;;;22.20;73.10;;;;;;4966519;29;19910;-87
2022/06/03 15:04:26;;;;;;;;;;;21.90;74.20;;;;;;4983155;29;19914;-87
2022/06/03 15:07:01;;;;;;;;;;;22.10;72.70;;;;;;4966562;29;19960;-85
2022/06/03 15:09:29;;;;;;;;;;;22.10;75.20;;;;;;4966454;29;19957;-84
2022/06/03 15:12:03;;;;;;;;;;;22.00;78.10;;;;;;4982975;29;19914;-84
2022/06/03 15:14:31;;;;;;;;;;;22.30;75.50;;;;;;4982817;29;19978;-85
2022/06/03 15:16:59;;;;;;;;;;;22.40;76.80;;;;;;4966259;29;19918;-85
2022/06/03 15:19:34;;;;;;;;;;;22.40;75.00;;;;;;4982798;29;19925;-84
2022/06/03 15:22:00;;;;;;;;;;;22.50;76.80;;;;;;4983006;29;19917;-83
2022/06/03 15:24:26;;;;;;;;;;;22.20;73.30;;;;;;4982803;29;19915;-85
2022/06/03 15:26:51;;;;;;;;;;;22.20;75.30;;;;;;4982888;29;19934;-84